Time;durP1;ratioP1;P1;durP2;ratioP2;P2;SDS_P1;SDS_P2;PMS_P1;PMS_P2;Temp;Humidity;BMP_temperature;BMP_pressure;BME280_temperature;BME280_humidity;BME280_pressure;Samples;Min_cycle;Max_cycle;Signal;HPM_P1;HPM_P2
2022/04/20 00:00:41;;;;;;;;;;;;;;;18.21;42.21;101803.16;4959396;28;19968;-81
2022/04/20 00:03:07;;;;;;;;;;;;;;;18.18;42.44;101807.47;4959466;28;19918;-81
2022/04/20 00:05:33;;;;;;;;;;;;;;;18.19;42.51;101802.28;4959419;28;19920;-80
2022/04/20 00:08:01;;;;;;;;;;;;;;;18.22;42.49;101802.28;4976770;28;20031;-80
2022/04/20 00:10:27;;;;;;;;;;;;;;;18.20;42.53;101809.22;4959214;28;19914;-80
2022/04/20 00:12:52;;;;;;;;;;;;;;;18.22;42.50;101807.47;4976521;28;19973;-80
2022/04/20 00:15:17;;;;;;;;;;;;;;;18.17;42.48;101804.00;4943480;28;19930;-80
2022/04/20 00:17:43;;;;;;;;;;;;;;;18.14;42.68;101798.78;4959500;28;20440;-80
2022/04/20 00:20:08;;;;;;;;;;;;;;;18.07;42.53;101794.41;4959358;28;20401;-81
2022/04/20 00:22:33;;;;;;;;;;;;;;;18.08;42.67;101802.22;4961271;28;19922;-82
2022/04/20 00:24:59;;;;;;;;;;;;;;;18.11;42.76;101798.75;4978832;28;20250;-80
2022/04/20 00:27:24;;;;;;;;;;;;;;;18.14;42.74;101804.00;4947441;28;19918;-82
2022/04/20 00:29:49;;;;;;;;;;;;;;;18.14;42.41;101805.72;4962720;28;19918;-81
2022/04/20 00:32:14;;;;;;;;;;;;;;;18.12;42.65;101803.13;4984125;28;20004;-82
2022/04/20 00:34:40;;;;;;;;;;;;;;;18.14;42.65;101796.19;4982718;28;19922;-81
2022/04/20 00:37:05;;;;;;;;;;;;;;;18.14;42.88;101803.09;4962055;28;20012;-81
2022/04/20 00:39:30;;;;;;;;;;;;;;;18.12;42.89;101803.13;4946499;28;19922;-81
2022/04/20 00:41:56;;;;;;;;;;;;;;;18.14;42.85;101803.09;4979620;28;19965;-81
2022/04/20 00:44:23;;;;;;;;;;;;;;;18.20;42.66;101803.13;4959715;28;19918;-80
2022/04/20 00:46:50;;;;;;;;;;;;;;;18.16;42.96;101806.59;4976637;28;20008;-81
2022/04/20 00:49:16;;;;;;;;;;;;;;;18.16;43.02;101809.19;4959026;28;20384;-81
2022/04/20 00:51:57;;;;;;;;;;;;;;;18.15;42.81;101804.88;4959540;28;20266;-80
2022/04/20 00:54:22;;;;;;;;;;;;;;;18.13;43.02;101811.81;4959585;28;19914;-80
2022/04/20 00:56:47;;;;;;;;;;;;;;;18.12;42.73;101804.84;4976589;28;19937;-80
2022/04/20 00:59:15;;;;;;;;;;;;;;;18.10;42.99;101812.66;4958997;28;19926;-80
2022/04/20 01:01:40;;;;;;;;;;;;;;;18.12;42.83;101807.44;4982487;28;19914;-80
2022/04/20 01:04:05;;;;;;;;;;;;;;;18.12;42.67;101810.03;4949389;28;19925;-80
2022/04/20 01:06:31;;;;;;;;;;;;;;;18.12;42.73;101812.66;4965176;28;19920;-81
2022/04/20 01:08:57;;;;;;;;;;;;;;;18.14;42.97;101813.53;4982289;28;19918;-80
2022/04/20 01:11:22;;;;;;;;;;;;;;;18.12;42.90;101817.88;4964948;28;19965;-80
2022/04/20 01:13:48;;;;;;;;;;;;;;;18.07;42.98;101815.25;4982025;28;19919;-80
2022/04/20 01:16:13;;;;;;;;;;;;;;;18.10;42.94;101815.28;4982415;28;19934;-80
2022/04/20 01:18:43;;;;;;;;;;;;;;;18.10;43.05;101812.66;4965047;28;19984;-80
2022/04/20 01:21:10;;;;;;;;;;;;;;;18.04;43.03;101817.84;4965098;28;20013;-81
2022/04/20 01:23:36;;;;;;;;;;;;;;;18.08;43.21;101814.41;4965226;28;19918;-80
2022/04/20 01:26:04;;;;;;;;;;;;;;;18.05;43.20;101812.66;4982362;28;19937;-80
2022/04/20 01:28:29;;;;;;;;;;;;;;;18.07;42.97;101818.75;4982160;28;19914;-80
2022/04/20 01:30:55;;;;;;;;;;;;;;;18.07;43.03;101810.03;4982023;28;19968;-80
2022/04/20 01:33:20;;;;;;;;;;;;;;;18.08;42.91;101817.00;4982057;28;19925;-81
2022/04/20 01:35:47;;;;;;;;;;;;;;;18.05;42.80;101814.38;4981878;28;19918;-80
2022/04/20 01:38:13;;;;;;;;;;;;;;;18.04;42.91;101818.72;4981905;28;19934;-76
2022/04/20 01:40:38;;;;;;;;;;;;;;;18.07;42.97;101823.06;4981680;28;20301;-76
2022/04/20 01:43:03;;;;;;;;;;;;;;;18.08;42.92;101814.41;4981634;28;20316;-77
2022/04/20 01:45:29;;;;;;;;;;;;;;;18.02;42.89;101820.44;4964208;28;19920;-76
2022/04/20 01:47:54;;;;;;;;;;;;;;;18.05;42.87;101812.66;4982003;28;19918;-77
2022/04/20 01:50:19;;;;;;;;;;;;;;;18.09;42.79;101818.72;4948220;28;19918;-76
2022/04/20 01:52:47;;;;;;;;;;;;;;;18.06;42.92;101816.13;4982687;28;19922;-76
2022/04/20 01:55:12;;;;;;;;;;;;;;;18.05;42.89;101823.06;4964235;28;19914;-76
2022/04/20 01:57:37;;;;;;;;;;;;;;;18.07;42.79;101820.44;4981356;28;20377;-76
2022/04/20 02:00:04;;;;;;;;;;;;;;;18.06;42.75;101810.91;4981871;28;20384;-75
2022/04/20 02:02:35;;;;;;;;;;;;;;;18.08;42.96;101806.59;4982349;28;19914;-76
2022/04/20 02:05:02;;;;;;;;;;;;;;;18.09;42.92;101809.19;4981839;28;19932;-76
2022/04/20 02:07:27;;;;;;;;;;;;;;;18.10;42.94;101810.06;4981860;28;19997;-76
2022/04/20 02:09:53;;;;;;;;;;;;;;;18.07;42.98;101812.63;4966291;28;19950;-81
2022/04/20 02:12:18;;;;;;;;;;;;;;;18.06;42.72;101816.13;4980317;28;19965;-81
2022/04/20 02:14:44;;;;;;;;;;;;;;;18.03;42.87;101811.78;4979794;28;19922;-82
2022/04/20 02:17:09;;;;;;;;;;;;;;;17.98;43.04;101823.03;4961295;28;19926;-81
2022/04/20 02:19:34;;;;;;;;;;;;;;;18.00;42.75;101821.28;4978872;28;19929;-81
2022/04/20 02:21:59;;;;;;;;;;;;;;;18.00;42.84;101810.88;4978999;28;19918;-80
2022/04/20 02:24:25;;;;;;;;;;;;;;;17.97;42.88;101811.75;4978596;28;20016;-81
2022/04/20 02:26:50;;;;;;;;;;;;;;;17.99;42.90;101811.75;4978582;28;19965;-80
2022/04/20 02:29:15;;;;;;;;;;;;;;;17.97;42.82;101824.75;4961338;28;19926;-82
2022/04/20 02:31:40;;;;;;;;;;;;;;;17.96;42.59;101815.19;4978691;28;20028;-81
2022/04/20 02:34:06;;;;;;;;;;;;;;;17.97;42.67;101808.28;4960665;28;19969;-77
2022/04/20 02:36:34;;;;;;;;;;;;;;;17.97;42.68;101810.88;4960813;28;19920;-76
2022/04/20 02:39:03;;;;;;;;;;;;;;;18.01;42.52;101813.50;4944906;28;19918;-76
2022/04/20 02:41:28;;;;;;;;;;;;;;;18.01;42.47;101813.50;4960511;28;19929;-76
2022/04/20 02:43:54;;;;;;;;;;;;;;;17.97;42.43;101810.88;4960472;28;19918;-77
2022/04/20 02:46:22;;;;;;;;;;;;;;;17.90;42.50;101820.41;4978003;28;19960;-77
2022/04/20 02:48:48;;;;;;;;;;;;;;;17.88;42.43;101809.09;4977818;28;19914;-76
2022/04/20 02:51:13;;;;;;;;;;;;;;;17.89;42.44;101814.28;4978029;28;20277;-76
2022/04/20 02:53:38;;;;;;;;;;;;;;;17.89;42.28;101818.66;4978316;28;19920;-76
2022/04/20 02:56:04;;;;;;;;;;;;;;;17.85;42.36;101817.75;4977724;28;20004;-76
2022/04/20 02:58:29;;;;;;;;;;;;;;;17.89;42.29;101818.66;4977640;28;19936;-77
2022/04/20 03:00:54;;;;;;;;;;;;;;;17.85;42.11;101828.16;4960103;28;19965;-76
2022/04/20 03:03:19;;;;;;;;;;;;;;;17.83;42.06;101819.50;4960422;28;20353;-76
2022/04/20 03:05:45;;;;;;;;;;;;;;;17.83;42.10;101818.59;4960240;28;19961;-76
2022/04/20 03:08:10;;;;;;;;;;;;;;;17.82;42.05;101822.94;4959894;28;20289;-76
2022/04/20 03:10:36;;;;;;;;;;;;;;;17.79;42.13;101820.31;4977464;28;20017;-76
2022/04/20 03:13:02;;;;;;;;;;;;;;;17.82;42.02;101816.88;4944542;28;19988;-76
2022/04/20 03:15:27;;;;;;;;;;;;;;;17.80;41.93;101818.56;4979381;28;19918;-76
2022/04/20 03:17:52;;;;;;;;;;;;;;;17.78;42.34;101823.75;4977226;28;19925;-76
2022/04/20 03:20:18;;;;;;;;;;;;;;;17.78;42.16;101818.56;4960119;28;19914;-80
2022/04/20 03:22:43;;;;;;;;;;;;;;;17.80;42.11;101824.66;4977093;28;19922;-80
2022/04/20 03:25:08;;;;;;;;;;;;;;;17.77;41.98;101818.53;4960026;28;20004;-80
2022/04/20 03:27:36;;;;;;;;;;;;;;;17.77;41.95;101819.44;4960690;28;19922;-81
2022/04/20 03:30:01;;;;;;;;;;;;;;;17.72;41.93;101815.91;4976935;28;19918;-80
2022/04/20 03:32:27;;;;;;;;;;;;;;;17.72;41.85;101815.03;4960059;28;19914;-81
2022/04/20 03:34:52;;;;;;;;;;;;;;;17.71;41.81;101829.81;4977255;28;19925;-81
2022/04/20 03:37:18;;;;;;;;;;;;;;;17.73;42.05;101820.28;4977147;28;19918;-80
2022/04/20 03:39:43;;;;;;;;;;;;;;;17.72;42.07;101825.47;4977074;28;19925;-81
2022/04/20 03:42:09;;;;;;;;;;;;;;;17.68;41.99;101828.06;4977220;28;20365;-81
2022/04/20 03:44:35;;;;;;;;;;;;;;;17.71;41.90;101829.81;4960123;28;19925;-81
2022/04/20 03:47:00;;;;;;;;;;;;;;;17.75;41.99;101831.56;4977133;28;19914;-81
2022/04/20 03:49:25;;;;;;;;;;;;;;;17.70;42.07;101825.44;4959350;28;19925;-80
2022/04/20 03:51:51;;;;;;;;;;;;;;;17.72;41.83;101830.66;4976672;28;19910;-80
2022/04/20 03:54:16;;;;;;;;;;;;;;;17.70;41.93;101833.25;4977035;28;19925;-80
2022/04/20 03:59:25;;;;;;;;;;;;;;;17.72;41.96;101836.75;4962929;28;19929;-81
2022/04/20 04:01:51;;;;;;;;;;;;;;;17.73;41.89;101835.03;4959383;28;20277;-81
2022/04/20 04:04:17;;;;;;;;;;;;;;;17.76;41.90;101829.81;4959578;28;19925;-81
2022/04/20 04:06:42;;;;;;;;;;;;;;;17.71;41.89;101827.19;4976957;28;19914;-81
2022/04/20 04:09:08;;;;;;;;;;;;;;;17.72;41.81;101828.06;4943479;28;19918;-80
2022/04/20 04:11:33;;;;;;;;;;;;;;;17.72;41.81;101828.94;4959165;28;19922;-80
2022/04/20 04:13:58;;;;;;;;;;;;;;;17.72;41.97;101830.66;4976465;28;19918;-81
2022/04/20 04:16:24;;;;;;;;;;;;;;;17.65;41.64;101830.63;4976615;28;19963;-80
2022/04/20 04:18:49;;;;;;;;;;;;;;;17.69;41.78;101831.53;4976413;28;19918;-81
2022/04/20 04:21:14;;;;;;;;;;;;;;;17.61;41.92;101833.22;4976774;28;19918;-81
2022/04/20 04:23:39;;;;;;;;;;;;;;;17.67;41.72;101839.31;4943181;28;19968;-82
2022/04/20 04:26:05;;;;;;;;;;;;;;;17.62;41.80;101833.22;4976742;28;20280;-81
2022/04/20 04:28:30;;;;;;;;;;;;;;;17.62;41.76;101837.56;4943582;28;20270;-80
2022/04/20 04:30:55;;;;;;;;;;;;;;;17.64;41.63;101835.84;4976387;28;20407;-81
2022/04/20 04:33:20;;;;;;;;;;;;;;;17.66;41.80;101831.53;4976384;28;19918;-81
2022/04/20 04:35:46;;;;;;;;;;;;;;;17.72;41.63;101846.28;4942806;28;20012;-81
2022/04/20 04:38:12;;;;;;;;;;;;;;;17.70;41.67;101841.06;4961736;28;19922;-81
2022/04/20 04:40:38;;;;;;;;;;;;;;;17.75;41.52;101847.19;4976920;28;20446;-82
2022/04/20 04:43:03;;;;;;;;;;;;;;;17.66;41.59;101842.78;4959316;28;19918;-81
2022/04/20 04:50:57;;;;;;;;;;;;;;;17.59;41.45;101853.16;4976561;28;19929;-81
2022/04/20 04:53:22;;;;;;;;;;;;;;;17.62;41.45;101856.66;4976082;28;19918;-82
2022/04/20 04:55:47;;;;;;;;;;;;;;;17.58;41.38;101860.09;4975605;28;20285;-81
2022/04/20 04:58:13;;;;;;;;;;;;;;;17.60;41.32;101852.31;4942381;28;19929;-81
2022/04/20 05:00:38;;;;;;;;;;;;;;;17.57;41.37;101858.38;4976247;28;19918;-77
2022/04/20 05:03:03;;;;;;;;;;;;;;;17.57;41.08;101858.38;4975592;28;19922;-77
2022/04/20 05:05:29;;;;;;;;;;;;;;;17.58;41.10;101860.09;4975390;28;19964;-77
2022/04/20 05:07:54;;;;;;;;;;;;;;;17.51;41.06;101865.22;4975394;28;19921;-77
2022/04/20 05:10:23;;;;;;;;;;;;;;;17.50;41.33;101864.38;4942131;28;19942;-77
2022/04/20 05:12:48;;;;;;;;;;;;;;;17.53;41.19;101861.81;4958462;28;20388;-78
2022/04/20 05:15:13;;;;;;;;;;;;;;;17.80;42.79;101865.44;4958237;28;19926;-80
2022/04/20 05:17:39;;;;;;;;;;;;;;;18.02;44.15;101866.44;4975569;28;19933;-83
2022/04/20 05:20:04;;;;;;;;;;;;;;;18.14;43.83;101868.22;4975796;28;19925;-83
2022/04/20 05:22:29;;;;;;;;;;;;;;;18.29;43.69;101870.91;4959509;28;19914;-84
2022/04/20 05:24:55;;;;;;;;;;;;;;;18.41;43.78;101870.97;4958345;28;19918;-86
2022/04/20 05:27:20;;;;;;;;;;;;;;;18.47;43.77;101873.59;4958532;28;19921;-87
2022/04/20 05:29:45;;;;;;;;;;;;;;;18.38;43.61;101878.78;4958227;28;19914;-83
2022/04/20 05:32:11;;;;;;;;;;;;;;;18.25;43.71;101880.47;4942534;28;20012;-84
2022/04/20 05:34:36;;;;;;;;;;;;;;;18.24;43.55;101886.53;4958424;28;19918;-85
2022/04/20 05:42:29;;;;;;;;;;;;;;;19.14;41.80;101890.28;4960906;28;19965;-85
2022/04/20 05:44:55;;;;;;;;;;;;;;;19.75;40.08;101889.41;4941779;28;19918;-88
2022/04/20 05:47:20;;;;;;;;;;;;;;;20.26;39.28;101886.63;4943753;28;20380;-83
2022/04/20 05:49:45;;;;;;;;;;;;;;;20.63;38.91;101887.34;4961400;28;20300;-80
2022/04/20 05:52:11;;;;;;;;;;;;;;;20.81;38.63;101883.75;4978803;28;19918;-85
2022/04/20 05:54:36;;;;;;;;;;;;;;;21.02;38.14;101887.97;4945814;28;19973;-85
2022/04/20 05:57:02;;;;;;;;;;;;;;;21.12;37.70;101880.91;4978490;28;19914;-84
2022/04/20 05:59:27;;;;;;;;;;;;;;;21.40;36.75;101878.94;4945257;28;19926;-84
2022/04/20 06:01:53;;;;;;;;;;;;;;;21.36;36.44;101885.97;4945513;28;19966;-82
2022/04/20 06:04:18;;;;;;;;;;;;;;;21.22;36.58;101886.97;4978831;28;19925;-82
2022/04/20 06:06:43;;;;;;;;;;;;;;;21.34;36.80;101879.00;4960987;28;20300;-83
2022/04/20 06:09:09;;;;;;;;;;;;;;;21.43;37.05;101878.97;4944854;28;19918;-82
2022/04/20 06:11:34;;;;;;;;;;;;;;;21.56;36.26;101877.97;4978389;28;19914;-82
2022/04/20 06:13:59;;;;;;;;;;;;;;;21.62;36.25;101871.75;4978572;28;20368;-82
2022/04/20 06:16:25;;;;;;;;;;;;;;;21.76;36.19;101869.88;4960933;28;20394;-80
2022/04/20 06:18:50;;;;;;;;;;;;;;;21.73;35.57;101872.56;4960974;28;19918;-81
2022/04/20 06:21:15;;;;;;;;;;;;;;;21.84;35.96;101871.53;4944783;28;19918;-81
2022/04/20 06:23:40;;;;;;;;;;;;;;;21.89;34.99;101875.88;4961000;28;20116;-78
2022/04/20 06:26:06;;;;;;;;;;;;;;;22.01;35.16;101871.34;4961059;28;19957;-81
2022/04/20 06:28:31;;;;;;;;;;;;;;;22.09;34.85;101878.25;4978462;28;20324;-81
2022/04/20 06:30:56;;;;;;;;;;;;;;;22.13;34.82;101873.84;4944699;28;19918;-82
2022/04/20 06:33:23;;;;;;;;;;;;;;;22.23;35.17;101874.63;4960617;28;19937;-81
2022/04/20 06:35:48;;;;;;;;;;;;;;;22.33;35.04;101873.63;4960971;28;20014;-81
2022/04/20 06:38:13;;;;;;;;;;;;;;;22.45;35.44;101878.72;4977866;28;20381;-82
2022/04/20 06:40:39;;;;;;;;;;;;;;;22.38;35.71;101877.03;4960718;28;19918;-82
2022/04/20 06:43:05;;;;;;;;;;;;;;;22.47;35.71;101876.94;4961190;28;20284;-83
2022/04/20 06:45:30;;;;;;;;;;;;;;;22.47;36.01;101881.28;4960616;28;19925;-80
2022/04/20 06:47:59;;;;;;;;;;;;;;;22.37;35.21;101880.56;4960473;28;19918;-80
2022/04/20 06:50:24;;;;;;;;;;;;;;;22.42;35.07;101883.13;4960338;28;19922;-80
2022/04/20 06:58:33;;;;;;;;;;;;;;;22.47;35.42;101890.06;4962743;28;19929;-81
2022/04/20 07:00:58;;;;;;;;;;;;;;;22.33;35.25;101884.97;4961376;28;19937;-81
2022/04/20 07:03:24;;;;;;;;;;;;;;;22.37;35.72;101884.06;4978656;28;19925;-85
2022/04/20 07:05:49;;;;;;;;;;;;;;;22.39;35.49;101887.53;4944267;28;20362;-80
2022/04/20 07:08:15;;;;;;;;;;;;;;;22.58;35.09;101885.53;4960049;28;19965;-79
2022/04/20 07:10:40;;;;;;;;;;;;;;;22.53;35.72;101889.94;4944029;28;20284;-77
2022/04/20 07:13:05;;;;;;;;;;;;;;;22.84;34.83;101878.16;4987378;28;19914;-84
2022/04/20 07:15:30;;;;;;;;;;;;;;;23.08;34.02;101890.94;4979907;28;19926;-84
2022/04/20 07:17:56;;;;;;;;;;;;;;;22.70;34.78;101886.22;4978090;28;19974;-83
2022/04/20 07:20:21;;;;;;;;;;;;;;;22.78;33.75;101890.47;4960883;28;19918;-81
2022/04/20 07:22:47;;;;;;;;;;;;;;;22.94;33.61;101893.72;4959986;28;20017;-76
2022/04/20 07:25:12;;;;;;;;;;;;;;;22.83;32.95;101892.19;4960794;28;19917;-76
2022/04/20 07:27:37;;;;;;;;;;;;;;;22.81;33.45;101894.81;4959884;28;19918;-76
2022/04/20 07:30:03;;;;;;;;;;;;;;;22.89;32.22;101889.47;4977263;28;19914;-76
2022/04/20 07:32:28;;;;;;;;;;;;;;;23.15;32.62;101894.34;4960323;28;20373;-76
2022/04/20 07:34:53;;;;;;;;;;;;;;;23.02;32.87;101898.91;4979647;28;20007;-76
2022/04/20 07:37:19;;;;;;;;;;;;;;;22.94;33.04;101892.88;4978749;28;19920;-77
2022/04/20 07:39:44;;;;;;;;;;;;;;;22.96;32.48;101897.22;4978734;28;20021;-76
2022/04/20 07:42:09;;;;;;;;;;;;;;;22.93;32.01;101897.25;4978341;28;19962;-76
2022/04/20 07:44:35;;;;;;;;;;;;;;;23.01;32.45;101897.16;4977420;28;20369;-77
2022/04/20 07:47:00;;;;;;;;;;;;;;;22.96;33.32;101909.47;4960535;28;19914;-76
2022/04/20 07:52:09;;;;;;;;;;;;;;;22.79;33.61;101904.47;4978137;28;19921;-76
2022/04/20 07:54:35;;;;;;;;;;;;;;;22.77;32.91;101914.13;4959694;28;20009;-76
2022/04/20 07:57:00;;;;;;;;;;;;;;;22.73;32.34;101910.69;4959513;28;19918;-76
2022/04/20 07:59:25;;;;;;;;;;;;;;;22.66;31.68;101903.75;4976603;28;19973;-77
2022/04/20 08:01:51;;;;;;;;;;;;;;;22.61;31.90;101902.13;4977667;28;19914;-77
2022/04/20 08:04:16;;;;;;;;;;;;;;;22.57;32.51;101910.00;4976448;28;20278;-78
2022/04/20 08:06:41;;;;;;;;;;;;;;;22.47;33.33;101900.53;4976635;28;19922;-77
2022/04/20 08:09:07;;;;;;;;;;;;;;;22.37;32.92;101909.41;4958739;28;20005;-77
2022/04/20 08:11:32;;;;;;;;;;;;;;;22.37;33.11;101912.03;4959266;28;19968;-77
2022/04/20 08:14:10;;;;;;;;;;;;;;;22.54;31.66;101914.44;4958751;28;19922;-77
2022/04/20 08:16:35;;;;;;;;;;;;;;;22.25;32.54;101912.19;4960859;28;20297;-77
2022/04/20 08:19:00;;;;;;;;;;;;;;;22.31;31.04;101917.34;4976349;28;19922;-77
2022/04/20 08:21:26;;;;;;;;;;;;;;;22.10;31.85;101911.47;4976666;28;20380;-77
2022/04/20 08:23:51;;;;;;;;;;;;;;;21.93;33.14;101910.78;4975821;28;19925;-78
2022/04/20 08:26:16;;;;;;;;;;;;;;;21.83;33.67;101917.00;4975876;28;19921;-77
2022/04/20 08:28:41;;;;;;;;;;;;;;;21.80;33.26;101919.63;4975881;28;19918;-77
2022/04/20 08:31:07;;;;;;;;;;;;;;;21.77;33.15;101923.16;4976513;28;19921;-77
2022/04/20 08:33:33;;;;;;;;;;;;;;;21.55;34.92;101919.88;4958727;28;20358;-77
2022/04/20 08:35:58;;;;;;;;;;;;;;;21.48;33.62;101921.66;4975954;28;19925;-77
2022/04/20 08:38:24;;;;;;;;;;;;;;;21.39;34.38;101921.72;4958371;28;20319;-77
2022/04/20 08:40:52;;;;;;;;;;;;;;;21.35;34.72;101925.25;4976440;28;19964;-78
2022/04/20 08:43:19;;;;;;;;;;;;;;;21.41;33.17;101924.34;4976431;28;19914;-77
2022/04/20 08:45:46;;;;;;;;;;;;;;;21.36;32.82;101925.25;4958431;28;19918;-77
2022/04/20 08:48:11;;;;;;;;;;;;;;;21.16;33.42;101924.50;4976509;28;19914;-77
2022/04/20 08:50:37;;;;;;;;;;;;;;;21.09;33.44;101925.44;4975809;28;19914;-78
2022/04/20 08:53:02;;;;;;;;;;;;;;;21.12;33.07;101923.69;4958232;28;19962;-77
2022/04/20 08:55:28;;;;;;;;;;;;;;;21.13;32.88;101932.41;4975915;28;19914;-76
2022/04/20 08:57:54;;;;;;;;;;;;;;;21.04;33.48;101935.09;4976057;28;19924;-78
2022/04/20 09:00:22;;;;;;;;;;;;;;;21.03;33.26;101926.34;4958765;28;19914;-76
2022/04/20 09:02:56;;;;;;;;;;;;;;;20.93;33.58;101927.31;4958294;28;19914;-76
2022/04/20 09:05:28;;;;;;;;;;;;;;;20.85;33.91;101923.84;4958646;28;19914;-77
2022/04/20 09:07:54;;;;;;;;;;;;;;;20.88;34.08;101926.44;4975763;28;20284;-77
2022/04/20 09:10:20;;;;;;;;;;;;;;;20.85;34.03;101926.47;4976906;28;19958;-77
2022/04/20 09:12:45;;;;;;;;;;;;;;;20.83;34.09;101923.00;4976152;28;19929;-77
2022/04/20 09:15:14;;;;;;;;;;;;;;;20.80;34.46;101918.66;4958951;28;19926;-77
2022/04/20 09:17:47;;;;;;;;;;;;;;;20.77;34.50;101925.63;4959138;28;19922;-76
2022/04/20 09:20:16;;;;;;;;;;;;;;;20.75;35.09;101920.41;4975990;28;20005;-77
2022/04/20 09:22:57;;;;;;;;;;;;;;;20.62;34.96;101918.75;4946175;28;19922;-77
2022/04/20 09:25:28;;;;;;;;;;;;;;;20.59;35.50;101916.16;4962380;28;19915;-77
2022/04/20 09:27:53;;;;;;;;;;;;;;;20.45;35.67;101924.91;4980074;28;19922;-77
2022/04/20 09:30:19;;;;;;;;;;;;;;;20.53;35.79;101917.00;4979841;28;19922;-78
2022/04/20 09:32:45;;;;;;;;;;;;;;;20.45;35.83;101918.81;4946711;28;19922;-77
2022/04/20 09:35:12;;;;;;;;;;;;;;;20.42;36.16;101916.19;4961904;28;19914;-76
2022/04/20 09:37:37;;;;;;;;;;;;;;;20.42;36.25;101913.56;4979763;28;19918;-77
2022/04/20 09:40:05;;;;;;;;;;;;;;;20.30;35.89;101912.75;4962494;28;19921;-77
2022/04/20 09:42:31;;;;;;;;;;;;;;;20.30;36.18;101917.13;4962087;28;19918;-77
2022/04/20 09:45:08;;;;;;;;;;;;;;;20.24;35.20;101909.28;4961979;28;19918;-77
2022/04/20 09:50:21;;;;;;;;;;;;;;;20.27;36.48;101906.66;4979133;28;19941;-76
2022/04/20 09:52:47;;;;;;;;;;;;;;;20.22;36.27;101898.84;4961440;28;19935;-76
2022/04/20 09:55:13;;;;;;;;;;;;;;;20.23;36.32;101904.94;4961280;28;19914;-76
2022/04/20 09:57:39;;;;;;;;;;;;;;;20.10;35.25;101901.50;4961465;28;19977;-77
2022/04/20 10:00:04;;;;;;;;;;;;;;;20.03;36.48;101899.78;4945302;28;19922;-78
2022/04/20 10:02:30;;;;;;;;;;;;;;;20.01;35.76;101896.28;4961096;28;20361;-78
2022/04/20 10:04:56;;;;;;;;;;;;;;;19.94;35.30;101898.06;4962345;28;19914;-77
2022/04/20 10:07:21;;;;;;;;;;;;;;;19.93;35.94;101898.94;4979033;28;20329;-78
2022/04/20 10:09:47;;;;;;;;;;;;;;;19.91;36.13;101896.31;4945389;28;20006;-78
2022/04/20 10:12:17;;;;;;;;;;;;;;;19.88;35.31;101895.44;4961892;28;20361;-78
2022/04/20 10:17:27;;;;;;;;;;;;;;;19.99;35.66;101885.88;4978628;28;20074;-78
2022/04/20 10:19:53;;;;;;;;;;;;;;;19.93;35.64;101896.31;4948691;28;19949;-78
2022/04/20 10:22:20;;;;;;;;;;;;;;;19.87;35.57;101889.38;4966838;28;19914;-78
2022/04/20 10:24:46;;;;;;;;;;;;;;;19.90;36.37;101889.38;4963270;28;20021;-78
2022/04/20 10:27:37;;;;;;;;;;;;;;;19.92;36.28;101892.84;4962047;28;19957;-77
2022/04/20 10:30:07;;;;;;;;;;;;;;;19.96;36.84;101885.00;4957682;28;19915;-78
2022/04/20 10:32:58;;;;;;;;;;;;;;;19.93;36.41;101886.75;4959963;28;20289;-77
2022/04/20 10:35:23;;;;;;;;;;;;;;;19.82;35.86;101890.25;4953680;28;19962;-77
2022/04/20 10:38:07;;;;;;;;;;;;;;;19.77;36.12;101886.78;4960568;28;19965;-77
2022/04/20 10:40:33;;;;;;;;;;;;;;;19.68;35.90;101875.44;4960350;28;19926;-77
2022/04/20 10:43:20;;;;;;;;;;;;;;;19.73;36.24;101870.25;4944751;28;19918;-80
2022/04/20 10:46:02;;;;;;;;;;;;;;;19.73;35.95;101873.72;4960514;28;19914;-76
2022/04/20 10:48:41;;;;;;;;;;;;;;;19.80;36.52;101869.38;4977599;28;19914;-80
2022/04/20 10:51:30;;;;;;;;;;;;;;;19.87;36.83;101868.47;4960175;28;19921;-79
2022/04/20 10:54:15;;;;;;;;;;;;;;;19.84;36.91;101865.88;4952509;28;19925;-79
2022/04/20 10:56:47;;;;;;;;;;;;;;;19.79;36.82;101862.38;4977226;28;19921;-78
2022/04/20 10:59:12;;;;;;;;;;;;;;;19.89;37.04;101858.03;4977618;28;19914;-77
2022/04/20 11:01:56;;;;;;;;;;;;;;;19.85;36.56;101858.91;4960000;28;20053;-77
2022/04/20 11:04:30;;;;;;;;;;;;;;;19.79;36.90;101859.78;4959972;28;19914;-77
2022/04/20 11:06:59;;;;;;;;;;;;;;;19.80;36.89;101851.09;4959718;28;20357;-77
2022/04/20 11:09:43;;;;;;;;;;;;;;;19.86;37.87;101851.06;4959746;28;19953;-77
2022/04/20 11:20:59;;;;;;;;;;;;;;;19.77;36.50;101839.75;4977062;28;19920;-79
2022/04/20 11:23:44;;;;;;;;;;;;;;;19.81;37.24;101842.34;4960305;28;20323;-77
2022/04/20 11:26:12;;;;;;;;;;;;;;;19.98;38.68;101841.44;4960912;28;19910;-83
2022/04/20 11:28:41;;;;;;;;;;;;;;;20.03;38.17;101837.06;4946274;28;19918;-84
2022/04/20 11:31:07;;;;;;;;;;;;;;;20.00;38.83;101831.88;4979315;28;19922;-85
2022/04/20 11:33:33;;;;;;;;;;;;;;;19.95;38.70;101839.72;4979186;28;19918;-84
2022/04/20 11:35:58;;;;;;;;;;;;;;;19.90;38.80;101826.69;4961077;28;19945;-83
2022/04/20 11:38:56;;;;;;;;;;;;;;;19.94;38.61;101830.13;4978637;28;19934;-82
2022/04/20 11:41:21;;;;;;;;;;;;;;;19.89;37.98;101829.28;4930033;28;19921;-83
2022/04/20 11:43:49;;;;;;;;;;;;;;;19.84;36.93;101821.47;4960221;28;19918;-83
2022/04/20 11:46:15;;;;;;;;;;;;;;;19.83;36.68;101830.16;4960804;28;20377;-83
2022/04/20 11:48:51;;;;;;;;;;;;;;;19.79;34.87;101817.13;4961016;28;19924;-83
2022/04/20 11:51:20;;;;;;;;;;;;;;;19.76;34.80;101807.56;4979087;28;19910;-83
2022/04/20 11:53:46;;;;;;;;;;;;;;;19.78;34.94;101800.59;4979189;28;19941;-84
2022/04/20 11:56:12;;;;;;;;;;;;;;;19.76;34.59;101806.69;4961352;28;19918;-83
2022/04/20 11:58:38;;;;;;;;;;;;;;;19.76;34.68;101812.78;4979056;28;19929;-85
2022/04/20 12:01:04;;;;;;;;;;;;;;;19.75;33.95;101803.22;4978706;28;20440;-83
2022/04/20 12:03:36;;;;;;;;;;;;;;;19.78;34.58;101802.34;4960194;28;19921;-83
2022/04/20 12:06:08;;;;;;;;;;;;;;;19.78;34.07;101794.50;4961045;28;19920;-84
2022/04/20 12:08:34;;;;;;;;;;;;;;;19.77;34.59;101796.22;4961855;28;19938;-83
2022/04/20 12:11:07;;;;;;;;;;;;;;;19.79;34.31;101794.47;4945426;28;19997;-84
2022/04/20 12:13:33;;;;;;;;;;;;;;;19.75;33.50;101787.56;4977868;28;19914;-86
2022/04/20 12:16:02;;;;;;;;;;;;;;;19.79;33.78;101786.63;4945059;28;19926;-86
2022/04/20 12:18:33;;;;;;;;;;;;;;;19.74;33.47;101788.41;4960764;28;20424;-85
2022/04/20 12:20:59;;;;;;;;;;;;;;;19.72;33.60;101787.53;4978314;28;19921;-85
2022/04/20 12:23:32;;;;;;;;;;;;;;;19.69;33.01;101795.38;4945375;28;19918;-85
2022/04/20 12:25:58;;;;;;;;;;;;;;;19.68;33.38;101789.25;4978132;28;19921;-84
2022/04/20 12:28:35;;;;;;;;;;;;;;;19.67;32.65;101791.91;4960540;28;19914;-85
2022/04/20 12:31:01;;;;;;;;;;;;;;;19.70;33.52;101777.09;4979184;28;19914;-85
2022/04/20 12:33:26;;;;;;;;;;;;;;;19.67;32.76;101782.31;4944470;28;19972;-85
2022/04/20 12:36:07;;;;;;;;;;;;;;;19.66;32.73;101770.13;4960570;28;20340;-83
2022/04/20 12:38:42;;;;;;;;;;;;;;;19.71;32.89;101768.41;4977358;28;20276;-82
2022/04/20 12:41:28;;;;;;;;;;;;;;;19.68;32.81;101760.53;4960722;28;19914;-83
2022/04/20 12:43:54;;;;;;;;;;;;;;;19.72;32.91;101761.44;4977851;28;19921;-85
2022/04/20 12:46:19;;;;;;;;;;;;;;;19.69;33.41;101759.72;4978208;28;19998;-83
2022/04/20 12:48:47;;;;;;;;;;;;;;;19.71;32.58;101764.94;4961072;28;19969;-85
2022/04/20 12:51:21;;;;;;;;;;;;;;;19.76;33.46;101755.31;4977934;28;19918;-85
2022/04/20 12:53:46;;;;;;;;;;;;;;;19.76;33.36;101751.84;4960635;28;20029;-86
2022/04/20 13:04:23;;;;;;;;;;;;;;;19.93;34.22;101760.47;4965989;28;19925;-82
2022/04/20 13:06:49;;;;;;;;;;;;;;;19.90;34.01;101757.88;4964873;28;19918;-82
2022/04/20 13:09:14;;;;;;;;;;;;;;;19.82;32.51;101752.69;4979425;28;19922;-83
2022/04/20 13:11:39;;;;;;;;;;;;;;;19.76;32.57;101737.03;4945230;28;19925;-82
2022/04/20 13:14:05;;;;;;;;;;;;;;;19.81;32.61;101740.50;4944869;28;19929;-83
2022/04/20 13:16:30;;;;;;;;;;;;;;;19.84;32.22;101756.16;4959405;28;19930;-83
2022/04/20 13:18:55;;;;;;;;;;;;;;;19.87;31.99;101758.75;4977553;28;20397;-82